Time;durP1;ratioP1;P1;durP2;ratioP2;P2;SDS_P1;SDS_P2;PMS_P1;PMS_P2;Temp;Humidity;BMP_temperature;BMP_pressure;BME280_temperature;BME280_humidity;BME280_pressure;Samples;Min_cycle;Max_cycle;Signal;HPM_P1;HPM_P2
2022/07/28 00:02:21;;;;;;;;;;;12.90;99.90;;;;;;5092620;28;19912;-71
2022/07/28 00:04:48;;;;;;;;;;;13.00;99.90;;;;;;5094017;28;19923;-71
2022/07/28 00:07:14;;;;;;;;;;;13.10;99.90;;;;;;5094112;28;19915;-71
2022/07/28 00:09:41;;;;;;;;;;;13.10;99.90;;;;;;5094013;28;19958;-71
2022/07/28 00:12:08;;;;;;;;;;;13.20;99.90;;;;;;5093904;28;19943;-70
2022/07/28 00:14:35;;;;;;;;;;;13.20;99.90;;;;;;5094048;28;20359;-71
2022/07/28 00:17:01;;;;;;;;;;;13.40;99.90;;;;;;5093994;28;20384;-71
2022/07/28 00:19:28;;;;;;;;;;;13.40;99.90;;;;;;5092741;28;19919;-71
2022/07/28 00:21:55;;;;;;;;;;;13.50;99.90;;;;;;5088879;28;21997;-71
2022/07/28 00:24:23;;;;;;;;;;;13.50;99.90;;;;;;5063131;28;19916;-70
2022/07/28 00:26:49;;;;;;;;;;;13.50;99.90;;;;;;5052937;28;19913;-71
2022/07/28 00:29:16;;;;;;;;;;;13.60;99.90;;;;;;5052879;28;20466;-72
2022/07/28 00:31:43;;;;;;;;;;;13.60;99.90;;;;;;5067275;28;19916;-71
2022/07/28 00:34:10;;;;;;;;;;;13.60;99.90;;;;;;5093566;28;19915;-71
2022/07/28 00:36:37;;;;;;;;;;;13.70;99.90;;;;;;5093679;28;19915;-72
2022/07/28 00:39:04;;;;;;;;;;;13.80;99.90;;;;;;5093406;28;19908;-70
2022/07/28 00:41:31;;;;;;;;;;;13.90;99.90;;;;;;5093626;28;19922;-71
2022/07/28 00:43:57;;;;;;;;;;;14.00;99.90;;;;;;5093503;28;20040;-71
2022/07/28 00:46:24;;;;;;;;;;;14.10;99.90;;;;;;5093328;28;19912;-71
2022/07/28 00:48:54;;;;;;;;;;;14.10;99.90;;;;;;5093638;28;19914;-71
2022/07/28 00:51:22;;;;;;;;;;;14.20;99.90;;;;;;5093338;28;19908;-71
2022/07/28 00:53:49;;;;;;;;;;;14.20;99.90;;;;;;5093387;28;19916;-70
2022/07/28 00:56:16;;;;;;;;;;;14.30;99.90;;;;;;5093241;28;19912;-71
2022/07/28 00:58:43;;;;;;;;;;;14.40;99.90;;;;;;5093128;28;20433;-70
2022/07/28 01:01:14;;;;;;;;;;;14.40;99.90;;;;;;5093541;28;19951;-70
2022/07/28 01:03:42;;;;;;;;;;;14.50;99.90;;;;;;5093804;28;19998;-69
2022/07/28 01:06:21;;;;;;;;;;;14.60;99.90;;;;;;5093461;28;19955;-69
2022/07/28 01:09:13;;;;;;;;;;;14.70;99.90;;;;;;5093518;28;19908;-70
2022/07/28 01:11:54;;;;;;;;;;;14.80;99.90;;;;;;5077589;28;19951;-70
2022/07/28 01:14:28;;;;;;;;;;;15.40;99.90;;;;;;5096892;28;19908;-70
2022/07/28 01:17:04;;;;;;;;;;;15.60;99.90;;;;;;5097302;28;19931;-70
2022/07/28 01:19:37;;;;;;;;;;;15.90;99.90;;;;;;5097528;28;19908;-70
2022/07/28 01:22:05;;;;;;;;;;;16.00;99.90;;;;;;5096875;28;20011;-71
2022/07/28 01:24:49;;;;;;;;;;;16.30;99.90;;;;;;5097133;28;19916;-71
2022/07/28 01:27:28;;;;;;;;;;;16.40;99.90;;;;;;5097254;28;19999;-71
2022/07/28 01:29:55;;;;;;;;;;;16.30;99.90;;;;;;5097275;28;19908;-70
2022/07/28 01:32:24;;;;;;;;;;;16.40;99.90;;;;;;5096830;28;19957;-70
2022/07/28 01:34:57;;;;;;;;;;;16.20;99.90;;;;;;5097122;28;19908;-71
2022/07/28 01:37:25;;;;;;;;;;;16.10;99.90;;;;;;5096686;28;19908;-70
2022/07/28 01:39:53;;;;;;;;;;;16.00;99.90;;;;;;5097050;28;19954;-69
2022/07/28 01:42:22;;;;;;;;;;;15.80;99.90;;;;;;5096754;28;19915;-70
2022/07/28 01:44:50;;;;;;;;;;;15.80;99.90;;;;;;5096724;28;19969;-70
2022/07/28 01:47:17;;;;;;;;;;;15.80;99.90;;;;;;5096759;28;20381;-70
2022/07/28 01:49:45;;;;;;;;;;;15.80;99.90;;;;;;5096826;28;19908;-71
2022/07/28 01:52:13;;;;;;;;;;;15.80;99.90;;;;;;5096264;28;19908;-70
2022/07/28 01:54:41;;;;;;;;;;;15.80;99.90;;;;;;5096665;28;19912;-71
2022/07/28 01:57:09;;;;;;;;;;;15.80;99.90;;;;;;5096674;28;19908;-71
2022/07/28 01:59:37;;;;;;;;;;;15.80;99.90;;;;;;5096418;28;19920;-71
2022/07/28 02:02:05;;;;;;;;;;;15.80;99.90;;;;;;5096300;28;20271;-70
2022/07/28 02:04:33;;;;;;;;;;;15.80;99.90;;;;;;5096438;28;19920;-71
2022/07/28 02:07:00;;;;;;;;;;;15.80;99.90;;;;;;5094947;28;19924;-70
2022/07/28 02:09:28;;;;;;;;;;;15.80;99.90;;;;;;5096327;28;19966;-71
2022/07/28 02:11:55;;;;;;;;;;;15.70;99.90;;;;;;5096391;28;19916;-71
2022/07/28 02:14:23;;;;;;;;;;;15.70;99.90;;;;;;5096090;28;20350;-71
2022/07/28 02:16:57;;;;;;;;;;;15.70;99.90;;;;;;5096281;28;19912;-70
2022/07/28 02:19:25;;;;;;;;;;;15.70;99.90;;;;;;5096289;28;20366;-70
2022/07/28 02:21:53;;;;;;;;;;;15.70;99.90;;;;;;5096160;28;19916;-71
2022/07/28 02:24:21;;;;;;;;;;;15.80;99.90;;;;;;5095212;28;19916;-71
2022/07/28 02:27:11;;;;;;;;;;;15.80;99.90;;;;;;5095905;28;19908;-69
2022/07/28 02:29:49;;;;;;;;;;;15.90;99.90;;;;;;5090445;28;19915;-70
2022/07/28 02:32:18;;;;;;;;;;;15.90;99.90;;;;;;5095817;28;19909;-69
2022/07/28 02:34:46;;;;;;;;;;;15.90;99.90;;;;;;5095993;28;20311;-71
2022/07/28 02:37:14;;;;;;;;;;;15.90;99.90;;;;;;5095849;28;19908;-71
2022/07/28 02:39:59;;;;;;;;;;;16.00;99.90;;;;;;5079023;28;20368;-69
2022/07/28 02:42:28;;;;;;;;;;;15.90;99.90;;;;;;5060530;28;19909;-69
2022/07/28 02:45:02;;;;;;;;;;;15.90;99.90;;;;;;5054783;28;19948;-71
2022/07/28 02:47:31;;;;;;;;;;;15.90;99.90;;;;;;5055000;28;20351;-70
2022/07/28 02:50:01;;;;;;;;;;;16.00;99.90;;;;;;5054780;28;19909;-71
2022/07/28 02:52:28;;;;;;;;;;;16.10;99.90;;;;;;5054467;28;19908;-71
2022/07/28 02:54:56;;;;;;;;;;;16.10;99.90;;;;;;5081930;28;19908;-71
2022/07/28 02:57:24;;;;;;;;;;;16.10;99.90;;;;;;5095461;28;20327;-70
2022/07/28 02:59:52;;;;;;;;;;;15.90;99.90;;;;;;5095267;28;19920;-71
2022/07/28 03:02:19;;;;;;;;;;;16.00;99.90;;;;;;5095064;28;19912;-71
2022/07/28 03:04:58;;;;;;;;;;;16.00;99.90;;;;;;5095072;28;20370;-70
2022/07/28 03:07:32;;;;;;;;;;;16.10;99.90;;;;;;5095169;28;19961;-71
2022/07/28 03:09:59;;;;;;;;;;;16.20;99.90;;;;;;5095125;28;19908;-71
2022/07/28 03:12:26;;;;;;;;;;;16.20;99.90;;;;;;5095168;28;19908;-71
2022/07/28 03:14:53;;;;;;;;;;;16.20;99.90;;;;;;5095191;28;20251;-71
2022/07/28 03:17:20;;;;;;;;;;;16.10;99.90;;;;;;5095034;28;20258;-71
2022/07/28 03:19:47;;;;;;;;;;;16.00;99.90;;;;;;5094932;28;20362;-71
2022/07/28 03:22:14;;;;;;;;;;;16.00;99.90;;;;;;5094634;28;19912;-70
2022/07/28 03:24:47;;;;;;;;;;;16.10;99.90;;;;;;5094737;28;19961;-70
2022/07/28 03:27:25;;;;;;;;;;;16.20;99.90;;;;;;5094753;28;19951;-71
2022/07/28 03:29:56;;;;;;;;;;;16.20;99.90;;;;;;5094732;28;19953;-70
2022/07/28 03:32:25;;;;;;;;;;;16.30;99.90;;;;;;5094398;28;19908;-71
2022/07/28 03:34:51;;;;;;;;;;;16.30;99.90;;;;;;5093762;28;19954;-70
2022/07/28 03:37:23;;;;;;;;;;;16.30;99.90;;;;;;5094419;28;20332;-69
2022/07/28 03:39:51;;;;;;;;;;;16.20;99.90;;;;;;5094879;28;20024;-71
2022/07/28 03:42:18;;;;;;;;;;;16.10;99.90;;;;;;5094383;28;19916;-70
2022/07/28 03:44:46;;;;;;;;;;;16.00;99.90;;;;;;5094383;28;19920;-71
2022/07/28 03:47:14;;;;;;;;;;;16.00;99.90;;;;;;5094320;28;19953;-71
2022/07/28 03:49:40;;;;;;;;;;;16.00;99.90;;;;;;5094484;28;19919;-71
2022/07/28 03:52:07;;;;;;;;;;;16.20;99.90;;;;;;5093924;28;19908;-70
2022/07/28 03:54:34;;;;;;;;;;;16.30;99.90;;;;;;5094464;28;20386;-70
2022/07/28 03:57:01;;;;;;;;;;;16.30;99.90;;;;;;5094330;28;19953;-70
2022/07/28 03:59:27;;;;;;;;;;;16.40;99.90;;;;;;5094048;28;20255;-70
2022/07/28 04:01:55;;;;;;;;;;;16.40;99.90;;;;;;5094319;28;19916;-71
2022/07/28 04:04:22;;;;;;;;;;;16.50;99.40;;;;;;5093787;28;20354;-70
2022/07/28 04:06:49;;;;;;;;;;;16.50;99.50;;;;;;5092749;28;19908;-70
2022/07/28 04:09:16;;;;;;;;;;;16.40;99.70;;;;;;5093995;28;20003;-69
2022/07/28 04:11:43;;;;;;;;;;;16.30;99.50;;;;;;5094139;28;19908;-69
2022/07/28 04:14:10;;;;;;;;;;;16.30;99.60;;;;;;5093800;28;19964;-70
2022/07/28 04:16:37;;;;;;;;;;;16.30;99.80;;;;;;5093986;28;19908;-70
2022/07/28 04:19:03;;;;;;;;;;;16.50;99.50;;;;;;5093886;28;20014;-71
2022/07/28 04:21:30;;;;;;;;;;;16.50;99.20;;;;;;5093766;28;19912;-70
2022/07/28 04:23:57;;;;;;;;;;;16.50;99.30;;;;;;5093690;28;20358;-70
2022/07/28 04:26:24;;;;;;;;;;;16.40;99.40;;;;;;5093520;28;19912;-70
2022/07/28 04:28:50;;;;;;;;;;;16.50;99.30;;;;;;5093751;28;19908;-69
2022/07/28 04:31:17;;;;;;;;;;;16.50;99.20;;;;;;5093974;28;19990;-69
2022/07/28 04:33:45;;;;;;;;;;;16.50;99.50;;;;;;5093848;28;19933;-71
2022/07/28 04:36:12;;;;;;;;;;;16.60;99.30;;;;;;5093422;28;19908;-70
2022/07/28 04:38:39;;;;;;;;;;;16.70;98.90;;;;;;5093578;28;19919;-71
2022/07/28 04:41:06;;;;;;;;;;;16.60;98.50;;;;;;5093540;28;19908;-69
2022/07/28 04:43:32;;;;;;;;;;;16.50;99.20;;;;;;5093935;28;20262;-70
2022/07/28 04:45:59;;;;;;;;;;;16.50;98.80;;;;;;5093272;28;20071;-71
2022/07/28 04:48:26;;;;;;;;;;;16.60;98.70;;;;;;5093574;28;19995;-71
2022/07/28 04:50:53;;;;;;;;;;;16.50;99.00;;;;;;5093242;28;19995;-70
2022/07/28 04:53:20;;;;;;;;;;;16.90;98.20;;;;;;5093529;28;19912;-71
2022/07/28 04:55:48;;;;;;;;;;;16.80;98.10;;;;;;5093387;28;19908;-71
2022/07/28 04:58:17;;;;;;;;;;;16.80;98.50;;;;;;5093164;28;19912;-69
2022/07/28 05:00:44;;;;;;;;;;;16.80;98.40;;;;;;5093237;28;19930;-69
2022/07/28 05:03:11;;;;;;;;;;;16.80;98.20;;;;;;5093397;28;19938;-70
2022/07/28 05:05:37;;;;;;;;;;;16.70;99.20;;;;;;5092952;28;20385;-70
2022/07/28 05:08:04;;;;;;;;;;;16.90;97.90;;;;;;5093028;28;19912;-70
2022/07/28 05:10:31;;;;;;;;;;;16.80;97.80;;;;;;5092810;28;20286;-70
2022/07/28 05:12:58;;;;;;;;;;;16.80;98.10;;;;;;5093065;28;19908;-69
2022/07/28 05:15:24;;;;;;;;;;;16.90;97.50;;;;;;5093180;28;19908;-69
2022/07/28 05:17:51;;;;;;;;;;;16.90;97.40;;;;;;5093210;28;19953;-71
2022/07/28 05:20:19;;;;;;;;;;;16.80;97.60;;;;;;5092947;28;20363;-70
2022/07/28 05:22:46;;;;;;;;;;;16.80;97.70;;;;;;5093004;28;19961;-69
2022/07/28 05:25:14;;;;;;;;;;;16.80;97.80;;;;;;5093109;28;20012;-70
2022/07/28 05:27:40;;;;;;;;;;;16.70;97.90;;;;;;5092984;28;19908;-69
2022/07/28 05:30:08;;;;;;;;;;;16.80;97.60;;;;;;5092922;28;19908;-70
2022/07/28 05:32:35;;;;;;;;;;;16.90;97.20;;;;;;5093181;28;19908;-70
2022/07/28 05:35:01;;;;;;;;;;;16.80;98.40;;;;;;5093093;28;19908;-71
2022/07/28 05:37:28;;;;;;;;;;;16.80;97.80;;;;;;5092830;28;19908;-70
2022/07/28 05:39:55;;;;;;;;;;;16.90;97.30;;;;;;5093036;28;19947;-70
2022/07/28 05:42:22;;;;;;;;;;;17.00;97.30;;;;;;5092844;28;19921;-70
2022/07/28 05:44:49;;;;;;;;;;;17.00;97.60;;;;;;5092876;28;20019;-70
2022/07/28 05:47:15;;;;;;;;;;;17.00;97.50;;;;;;5092880;28;19915;-71
2022/07/28 05:49:42;;;;;;;;;;;16.90;98.00;;;;;;5093063;28;20370;-71
2022/07/28 05:52:09;;;;;;;;;;;16.90;98.30;;;;;;5092633;28;19915;-71
2022/07/28 05:54:35;;;;;;;;;;;16.90;98.30;;;;;;5092804;28;19943;-70
2022/07/28 05:57:02;;;;;;;;;;;16.80;98.30;;;;;;5092849;28;19930;-71
2022/07/28 05:59:29;;;;;;;;;;;16.80;98.40;;;;;;5096141;28;19923;-71
2022/07/28 06:01:55;;;;;;;;;;;16.80;98.20;;;;;;5096616;28;19908;-71
2022/07/28 06:04:22;;;;;;;;;;;16.80;98.60;;;;;;5096255;28;19920;-70
2022/07/28 06:06:49;;;;;;;;;;;16.80;99.20;;;;;;5096247;28;20011;-70
2022/07/28 06:09:15;;;;;;;;;;;16.80;98.80;;;;;;5096404;28;19908;-70
2022/07/28 06:11:42;;;;;;;;;;;16.70;99.10;;;;;;5096786;28;20274;-71
2022/07/28 06:14:09;;;;;;;;;;;16.70;99.10;;;;;;5096394;28;19962;-71
2022/07/28 06:16:36;;;;;;;;;;;16.70;99.70;;;;;;5096851;28;19908;-71
2022/07/28 06:19:02;;;;;;;;;;;16.70;99.70;;;;;;5096304;28;19908;-70
2022/07/28 06:21:31;;;;;;;;;;;16.70;99.60;;;;;;5096067;28;19908;-71
2022/07/28 06:23:58;;;;;;;;;;;16.70;99.90;;;;;;5096121;28;19908;-71
2022/07/28 06:26:25;;;;;;;;;;;16.70;99.90;;;;;;5096236;28;19912;-71
2022/07/28 06:28:51;;;;;;;;;;;16.80;99.90;;;;;;5096249;28;19999;-70
2022/07/28 06:31:18;;;;;;;;;;;16.80;99.90;;;;;;5096215;28;20354;-71
2022/07/28 06:33:45;;;;;;;;;;;16.80;99.60;;;;;;5096041;28;19915;-71
2022/07/28 06:36:11;;;;;;;;;;;16.80;99.70;;;;;;5095724;28;19915;-71
2022/07/28 06:38:38;;;;;;;;;;;16.80;99.90;;;;;;5095838;28;19912;-69
2022/07/28 06:41:05;;;;;;;;;;;16.80;99.60;;;;;;5095848;28;20003;-70
2022/07/28 06:43:32;;;;;;;;;;;16.80;99.50;;;;;;5095682;28;19908;-70
2022/07/28 06:45:58;;;;;;;;;;;16.80;99.10;;;;;;5095727;28;19916;-70
2022/07/28 06:48:25;;;;;;;;;;;16.80;98.90;;;;;;5095505;28;19990;-69
2022/07/28 06:50:52;;;;;;;;;;;16.70;98.50;;;;;;5093961;28;19957;-69
2022/07/28 06:53:19;;;;;;;;;;;16.60;98.50;;;;;;5093385;28;19912;-70
2022/07/28 06:55:45;;;;;;;;;;;16.60;98.60;;;;;;5093072;28;20638;-70
2022/07/28 06:58:12;;;;;;;;;;;16.50;98.80;;;;;;5093113;28;20407;-70
2022/07/28 07:00:39;;;;;;;;;;;16.40;99.10;;;;;;5092989;28;19920;-70
2022/07/28 07:03:05;;;;;;;;;;;16.40;99.00;;;;;;5093332;28;19920;-70
2022/07/28 07:05:32;;;;;;;;;;;16.30;98.90;;;;;;5092822;28;19916;-70
2022/07/28 07:07:59;;;;;;;;;;;16.40;98.90;;;;;;5093252;28;19908;-71
2022/07/28 07:10:26;;;;;;;;;;;16.40;99.10;;;;;;5093256;28;19908;-70
2022/07/28 07:12:52;;;;;;;;;;;16.30;99.00;;;;;;5093557;28;20003;-70
2022/07/28 07:15:19;;;;;;;;;;;16.40;99.30;;;;;;5093181;28;20275;-70
2022/07/28 07:17:46;;;;;;;;;;;16.30;99.20;;;;;;5091559;28;19966;-70
2022/07/28 07:20:13;;;;;;;;;;;16.30;99.20;;;;;;5092770;28;19908;-71
2022/07/28 07:22:43;;;;;;;;;;;16.30;99.50;;;;;;5093152;28;19909;-70
2022/07/28 07:25:17;;;;;;;;;;;16.20;99.40;;;;;;5078663;28;19924;-69
2022/07/28 07:27:44;;;;;;;;;;;16.20;99.60;;;;;;5072829;28;19923;-69
2022/07/28 07:30:11;;;;;;;;;;;16.20;99.60;;;;;;5072442;28;20272;-69
2022/07/28 07:32:39;;;;;;;;;;;16.20;99.80;;;;;;5072176;28;19916;-69
2022/07/28 07:35:07;;;;;;;;;;;16.10;99.80;;;;;;5072497;28;19925;-70
2022/07/28 07:37:34;;;;;;;;;;;16.10;99.90;;;;;;5072457;28;20008;-70
2022/07/28 07:40:01;;;;;;;;;;;16.10;99.90;;;;;;5072453;28;19960;-70
2022/07/28 07:42:27;;;;;;;;;;;16.00;99.90;;;;;;5072466;28;20386;-70
2022/07/28 07:44:54;;;;;;;;;;;16.00;99.90;;;;;;5072204;28;19912;-69
2022/07/28 07:47:21;;;;;;;;;;;15.90;99.90;;;;;;5072207;28;19995;-70
2022/07/28 07:49:48;;;;;;;;;;;15.90;99.90;;;;;;5071817;28;19944;-70
2022/07/28 07:52:14;;;;;;;;;;;15.90;99.90;;;;;;5071748;28;19916;-70
2022/07/28 07:54:41;;;;;;;;;;;15.90;99.90;;;;;;5072068;28;20298;-69
2022/07/28 07:57:08;;;;;;;;;;;15.90;99.90;;;;;;5072392;28;19920;-69
2022/07/28 07:59:35;;;;;;;;;;;15.90;99.80;;;;;;5071741;28;20367;-70
2022/07/28 08:02:02;;;;;;;;;;;15.90;99.70;;;;;;5061258;28;20367;-69
2022/07/28 08:04:28;;;;;;;;;;;15.90;99.90;;;;;;5051172;28;19927;-70
2022/07/28 08:06:55;;;;;;;;;;;15.80;99.90;;;;;;5051615;28;19908;-69
2022/07/28 08:09:26;;;;;;;;;;;15.80;99.90;;;;;;5050584;28;21238;-69
2022/07/28 08:11:52;;;;;;;;;;;15.80;99.90;;;;;;5051778;28;19912;-69
2022/07/28 08:14:19;;;;;;;;;;;15.80;99.90;;;;;;5049987;28;19913;-70
2022/07/28 08:16:46;;;;;;;;;;;15.70;99.90;;;;;;5051257;28;20015;-69
2022/07/28 08:19:12;;;;;;;;;;;15.70;99.90;;;;;;5051499;28;20339;-69
2022/07/28 08:21:39;;;;;;;;;;;15.70;99.90;;;;;;5050822;28;19916;-70
2022/07/28 08:24:06;;;;;;;;;;;15.60;99.90;;;;;;5050833;28;19909;-70
2022/07/28 08:26:33;;;;;;;;;;;15.60;99.90;;;;;;5051459;28;20382;-70
2022/07/28 08:28:59;;;;;;;;;;;15.50;99.90;;;;;;5051187;28;19917;-70
2022/07/28 08:31:26;;;;;;;;;;;15.50;99.90;;;;;;5051140;28;20007;-69
2022/07/28 08:33:54;;;;;;;;;;;15.50;99.90;;;;;;5051324;28;20660;-69
2022/07/28 08:36:21;;;;;;;;;;;15.40;99.90;;;;;;5051343;28;19924;-69
2022/07/28 08:38:47;;;;;;;;;;;15.40;99.90;;;;;;5050822;28;19912;-70
2022/07/28 08:41:22;;;;;;;;;;;15.30;99.90;;;;;;5051231;28;20360;-69
2022/07/28 08:43:51;;;;;;;;;;;15.30;99.90;;;;;;5050963;28;19908;-69
2022/07/28 08:46:20;;;;;;;;;;;15.30;99.90;;;;;;5050858;28;20070;-70
2022/07/28 08:48:47;;;;;;;;;;;15.30;99.90;;;;;;5051185;28;19947;-70
2022/07/28 08:51:14;;;;;;;;;;;15.20;99.90;;;;;;5050906;28;20432;-70
2022/07/28 08:53:42;;;;;;;;;;;15.10;99.90;;;;;;5050455;28;20363;-69
2022/07/28 08:56:11;;;;;;;;;;;15.00;99.90;;;;;;5050457;28;19913;-69
2022/07/28 08:58:39;;;;;;;;;;;14.90;99.90;;;;;;5050936;28;20386;-69
2022/07/28 09:01:07;;;;;;;;;;;14.80;99.90;;;;;;5049717;28;19920;-71
2022/07/28 09:03:34;;;;;;;;;;;14.80;99.90;;;;;;5052774;28;19909;-70
2022/07/28 09:06:01;;;;;;;;;;;14.80;99.90;;;;;;5052941;28;19928;-69
2022/07/28 09:08:27;;;;;;;;;;;14.90;99.90;;;;;;5052470;28;20011;-69
2022/07/28 09:10:54;;;;;;;;;;;14.80;99.90;;;;;;5053468;28;19923;-70
2022/07/28 09:13:22;;;;;;;;;;;14.90;99.90;;;;;;5053997;28;20351;-69
2022/07/28 09:15:49;;;;;;;;;;;14.80;99.90;;;;;;5052918;28;20335;-68
2022/07/28 09:18:16;;;;;;;;;;;14.80;99.90;;;;;;5052876;28;19915;-69
2022/07/28 09:20:43;;;;;;;;;;;14.80;99.90;;;;;;5052824;28;19908;-69
2022/07/28 09:23:10;;;;;;;;;;;14.80;99.90;;;;;;5052240;28;19935;-68
2022/07/28 09:25:37;;;;;;;;;;;14.80;99.90;;;;;;5052895;28;20244;-69
2022/07/28 09:28:07;;;;;;;;;;;14.70;99.90;;;;;;5052729;28;19909;-68
2022/07/28 09:30:35;;;;;;;;;;;14.70;99.90;;;;;;5052944;28;19984;-69
2022/07/28 09:33:19;;;;;;;;;;;14.70;99.90;;;;;;5053939;28;19944;-69
2022/07/28 09:35:47;;;;;;;;;;;14.70;99.90;;;;;;5056938;28;19916;-70
2022/07/28 09:38:14;;;;;;;;;;;14.70;99.90;;;;;;5056571;28;20314;-70
2022/07/28 09:40:41;;;;;;;;;;;14.70;99.90;;;;;;5056659;28;20371;-69
2022/07/28 09:43:09;;;;;;;;;;;14.60;99.90;;;;;;5056993;28;19947;-69
2022/07/28 09:45:36;;;;;;;;;;;14.60;99.90;;;;;;5056544;28;20008;-68
2022/07/28 09:48:10;;;;;;;;;;;14.60;99.90;;;;;;5056414;28;19935;-70
2022/07/28 09:50:38;;;;;;;;;;;14.50;99.90;;;;;;5056422;28;19916;-69
2022/07/28 09:53:24;;;;;;;;;;;14.50;99.90;;;;;;5056459;28;19999;-70
2022/07/28 09:55:56;;;;;;;;;;;14.40;99.90;;;;;;5056178;28;20413;-69
2022/07/28 09:58:23;;;;;;;;;;;14.40;99.90;;;;;;5056173;28;19909;-69
2022/07/28 10:00:49;;;;;;;;;;;14.30;99.90;;;;;;5056209;28;20371;-69
2022/07/28 10:03:26;;;;;;;;;;;14.30;99.90;;;;;;5056299;28;19992;-69
2022/07/28 10:05:53;;;;;;;;;;;14.20;99.90;;;;;;5055939;28;19916;-69
2022/07/28 10:08:38;;;;;;;;;;;14.20;99.90;;;;;;5055924;28;19958;-69
2022/07/28 10:11:05;;;;;;;;;;;14.20;99.90;;;;;;5056190;28;20321;-69
2022/07/28 10:13:31;;;;;;;;;;;14.20;99.90;;;;;;5056213;28;19915;-68
2022/07/28 10:16:11;;;;;;;;;;;14.10;99.90;;;;;;5056208;28;20414;-68
2022/07/28 10:18:39;;;;;;;;;;;14.10;99.90;;;;;;5056071;28;19909;-69
2022/07/28 10:21:12;;;;;;;;;;;14.20;99.90;;;;;;5055871;28;20403;-69
2022/07/28 10:23:39;;;;;;;;;;;14.10;99.90;;;;;;5056008;28;19913;-68
2022/07/28 10:26:10;;;;;;;;;;;14.10;99.90;;;;;;5055731;28;19917;-70
2022/07/28 10:28:41;;;;;;;;;;;14.10;99.90;;;;;;5055988;28;19909;-69
2022/07/28 10:31:13;;;;;;;;;;;14.00;99.90;;;;;;5056609;28;20409;-70
2022/07/28 10:33:43;;;;;;;;;;;14.00;99.90;;;;;;5055718;28;19912;-69
2022/07/28 10:36:11;;;;;;;;;;;14.00;99.90;;;;;;5055477;28;19936;-70
2022/07/28 10:38:38;;;;;;;;;;;14.00;99.90;;;;;;5055863;28;19947;-70
2022/07/28 10:41:07;;;;;;;;;;;14.00;99.90;;;;;;5055039;28;19991;-69
2022/07/28 10:43:34;;;;;;;;;;;14.00;99.90;;;;;;5055359;28;19936;-69
2022/07/28 10:46:04;;;;;;;;;;;13.90;99.90;;;;;;5055253;28;20018;-70
2022/07/28 10:48:31;;;;;;;;;;;13.90;99.90;;;;;;5055494;28;19917;-69
2022/07/28 10:50:58;;;;;;;;;;;13.90;99.90;;;;;;5055516;28;19915;-70
2022/07/28 10:53:44;;;;;;;;;;;13.80;99.90;;;;;;5055517;28;19959;-70
2022/07/28 10:56:50;;;;;;;;;;;13.80;99.90;;;;;;5050750;28;19949;-70
2022/07/28 10:59:24;;;;;;;;;;;13.80;99.90;;;;;;5033122;28;19921;-70
2022/07/28 11:01:51;;;;;;;;;;;13.80;99.90;;;;;;5033360;28;20003;-69
2022/07/28 11:04:36;;;;;;;;;;;13.80;99.90;;;;;;5044525;28;19970;-70
2022/07/28 11:07:12;;;;;;;;;;;13.90;99.90;;;;;;5055309;28;19952;-70
2022/07/28 11:09:39;;;;;;;;;;;14.00;99.90;;;;;;5055517;28;19908;-69
2022/07/28 11:12:06;;;;;;;;;;;14.00;99.90;;;;;;5060653;28;19909;-69
2022/07/28 11:14:36;;;;;;;;;;;14.00;99.90;;;;;;5057937;28;19966;-70
2022/07/28 11:17:03;;;;;;;;;;;14.00;99.90;;;;;;5055018;28;19996;-70
2022/07/28 11:19:31;;;;;;;;;;;14.00;99.90;;;;;;5087133;28;20363;-70
2022/07/28 11:25:01;;;;;;;;;;;14.00;99.90;;;;;;5055049;28;19924;-69
2022/07/28 11:27:40;;;;;;;;;;;14.00;99.90;;;;;;5054272;28;19909;-70
2022/07/28 11:30:07;;;;;;;;;;;13.90;99.90;;;;;;5054667;28;20352;-69
2022/07/28 11:32:49;;;;;;;;;;;13.90;99.90;;;;;;5054720;28;19916;-70
2022/07/28 11:35:22;;;;;;;;;;;14.00;99.90;;;;;;5054481;28;19932;-70
2022/07/28 11:38:00;;;;;;;;;;;13.90;99.90;;;;;;5054516;28;20355;-70
2022/07/28 11:40:43;;;;;;;;;;;13.90;99.90;;;;;;5086184;28;20342;-70
2022/07/28 11:43:22;;;;;;;;;;;13.90;99.90;;;;;;5054723;28;19958;-71
2022/07/28 11:45:50;;;;;;;;;;;13.80;99.90;;;;;;5054470;28;19943;-70
2022/07/28 11:48:17;;;;;;;;;;;13.80;99.90;;;;;;5054281;28;20447;-70
2022/07/28 11:51:02;;;;;;;;;;;13.90;99.90;;;;;;5054366;28;20003;-70
2022/07/28 11:53:35;;;;;;;;;;;13.90;99.90;;;;;;5054298;28;19967;-70
2022/07/28 11:56:09;;;;;;;;;;;13.90;99.90;;;;;;5053074;28;20251;-70
2022/07/28 11:58:36;;;;;;;;;;;13.90;99.90;;;;;;5054245;28;20338;-70
2022/07/28 12:01:14;;;;;;;;;;;13.90;99.90;;;;;;5054270;28;19947;-70
2022/07/28 12:03:42;;;;;;;;;;;13.90;99.90;;;;;;5054004;28;19920;-70
2022/07/28 12:06:09;;;;;;;;;;;13.90;99.90;;;;;;5053830;28;19970;-70
2022/07/28 12:08:58;;;;;;;;;;;13.80;99.90;;;;;;5054206;28;19909;-69
2022/07/28 12:11:26;;;;;;;;;;;13.90;99.90;;;;;;5053768;28;19916;-70
2022/07/28 12:14:01;;;;;;;;;;;13.80;99.90;;;;;;5053918;28;19909;-69
2022/07/28 12:16:28;;;;;;;;;;;13.80;99.90;;;;;;5054057;28;19915;-70
2022/07/28 12:18:55;;;;;;;;;;;13.80;99.90;;;;;;5053663;28;19916;-69
2022/07/28 12:21:37;;;;;;;;;;;13.80;99.90;;;;;;5053923;28;19909;-70
2022/07/28 12:24:04;;;;;;;;;;;13.80;99.90;;;;;;5053592;28;19999;-70
2022/07/28 12:26:38;;;;;;;;;;;13.70;99.90;;;;;;5053139;28;20385;-71
2022/07/28 12:29:05;;;;;;;;;;;13.70;99.90;;;;;;5053578;28;20333;-71
2022/07/28 12:31:32;;;;;;;;;;;13.70;99.90;;;;;;5052539;28;20393;-70
2022/07/28 12:34:00;;;;;;;;;;;13.70;99.90;;;;;;5053531;28;20004;-71
2022/07/28 12:36:27;;;;;;;;;;;13.70;99.90;;;;;;5053538;28;20363;-71
2022/07/28 12:38:54;;;;;;;;;;;13.60;99.90;;;;;;5053363;28;19909;-71
2022/07/28 12:41:21;;;;;;;;;;;13.60;99.90;;;;;;5053050;28;19908;-70
2022/07/28 12:43:52;;;;;;;;;;;13.50;99.90;;;;;;5053846;28;19915;-70
2022/07/28 12:46:21;;;;;;;;;;;13.50;99.90;;;;;;5053581;28;19959;-71
2022/07/28 12:48:48;;;;;;;;;;;13.50;99.90;;;;;;5053332;28;19909;-70
2022/07/28 12:51:33;;;;;;;;;;;13.50;99.90;;;;;;5053405;28;19991;-71
2022/07/28 12:54:00;;;;;;;;;;;13.50;99.90;;;;;;5053302;28;19962;-70
2022/07/28 12:56:27;;;;;;;;;;;13.40;99.90;;;;;;5052782;28;19909;-70
2022/07/28 12:59:04;;;;;;;;;;;13.40;99.90;;;;;;5053191;28;19966;-70
2022/07/28 13:01:49;;;;;;;;;;;13.40;99.90;;;;;;5053314;28;19966;-70
2022/07/28 13:04:17;;;;;;;;;;;13.40;99.90;;;;;;5052350;28;19916;-70
2022/07/28 13:06:55;;;;;;;;;;;13.30;99.90;;;;;;5054626;28;19962;-69
2022/07/28 13:09:22;;;;;;;;;;;13.40;99.90;;;;;;5059843;28;19908;-70
2022/07/28 13:11:49;;;;;;;;;;;13.30;99.90;;;;;;5059905;28;19909;-70
2022/07/28 13:14:16;;;;;;;;;;;13.30;99.90;;;;;;5059651;28;19916;-70
2022/07/28 13:16:43;;;;;;;;;;;13.30;99.90;;;;;;5059851;28;19932;-71
2022/07/28 13:19:20;;;;;;;;;;;13.30;99.90;;;;;;5059663;28;19931;-70
2022/07/28 13:21:50;;;;;;;;;;;13.30;99.90;;;;;;5059737;28;20275;-70
2022/07/28 13:24:18;;;;;;;;;;;13.30;99.90;;;;;;5059445;28;20303;-70
2022/07/28 13:26:45;;;;;;;;;;;13.30;99.90;;;;;;5059645;28;19955;-70
2022/07/28 13:29:12;;;;;;;;;;;13.40;99.90;;;;;;5059715;28;19908;-70
2022/07/28 13:31:39;;;;;;;;;;;13.40;99.90;;;;;;5059664;28;19955;-71
2022/07/28 13:34:07;;;;;;;;;;;13.40;99.90;;;;;;5059495;28;20336;-70
2022/07/28 13:36:37;;;;;;;;;;;13.40;99.90;;;;;;5059660;28;19908;-71
2022/07/28 13:39:04;;;;;;;;;;;13.40;99.90;;;;;;5059560;28;19909;-70
2022/07/28 13:41:31;;;;;;;;;;;13.40;99.90;;;;;;5059608;28;19909;-70
2022/07/28 13:43:58;;;;;;;;;;;13.40;99.90;;;;;;5059549;28;19909;-71
2022/07/28 13:46:25;;;;;;;;;;;13.30;99.90;;;;;;5059371;28;19917;-70
2022/07/28 13:48:52;;;;;;;;;;;13.30;99.90;;;;;;5059505;28;19916;-70
2022/07/28 13:51:18;;;;;;;;;;;13.30;99.90;;;;;;5059679;28;19916;-71
2022/07/28 13:53:45;;;;;;;;;;;13.30;99.90;;;;;;5059480;28;19995;-71
2022/07/28 13:56:12;;;;;;;;;;;13.30;99.90;;;;;;5059402;28;19974;-70
2022/07/28 13:58:38;;;;;;;;;;;13.30;99.90;;;;;;5059526;28;19909;-70
2022/07/28 14:01:05;;;;;;;;;;;13.30;99.90;;;;;;5059555;28;19917;-71
2022/07/28 14:03:32;;;;;;;;;;;13.30;99.90;;;;;;5059291;28;20344;-69
2022/07/28 14:05:59;;;;;;;;;;;13.20;99.90;;;;;;5059354;28;19974;-70
2022/07/28 14:08:26;;;;;;;;;;;13.30;99.90;;;;;;5059123;28;19909;-71
2022/07/28 14:10:55;;;;;;;;;;;13.20;99.90;;;;;;5059387;28;19909;-70
2022/07/28 14:13:21;;;;;;;;;;;13.20;99.90;;;;;;5059363;28;20449;-71
2022/07/28 14:15:48;;;;;;;;;;;13.20;99.90;;;;;;5059435;28;20374;-70
2022/07/28 14:18:15;;;;;;;;;;;13.20;99.90;;;;;;5057604;28;19909;-70
2022/07/28 14:20:42;;;;;;;;;;;13.20;99.90;;;;;;5056322;28;19908;-70
2022/07/28 14:23:08;;;;;;;;;;;13.20;99.90;;;;;;5057151;28;19908;-71
2022/07/28 14:25:35;;;;;;;;;;;13.20;99.90;;;;;;5056711;28;20008;-71
2022/07/28 14:28:02;;;;;;;;;;;13.20;99.90;;;;;;5055932;28;19935;-70
2022/07/28 14:30:29;;;;;;;;;;;13.10;99.90;;;;;;5056087;28;19916;-70